createdAt,value
2023-04-11T00:00:00.740Z,1.80
2023-04-11T00:02:28.058Z,2.20
2023-04-11T00:04:55.239Z,1.77
2023-04-11T00:07:22.294Z,1.83
2023-04-11T00:09:49.352Z,1.70
2023-04-11T00:12:16.907Z,2.03
2023-04-11T00:14:45.334Z,2.00
2023-04-11T00:17:13.030Z,1.60
2023-04-11T00:19:40.089Z,1.87
2023-04-11T00:22:09.377Z,2.03
2023-04-11T00:24:36.559Z,2.00
2023-04-11T00:27:03.655Z,2.20
2023-04-11T00:29:30.801Z,2.00
2023-04-11T00:31:57.906Z,1.93
2023-04-11T00:34:25.617Z,2.27
2023-04-11T00:36:52.709Z,1.90
2023-04-11T00:39:20.376Z,1.83
2023-04-11T00:41:47.730Z,2.07
2023-04-11T00:44:14.763Z,2.13
2023-04-11T00:46:46.038Z,2.40
2023-04-11T00:49:13.593Z,1.87
2023-04-11T00:51:40.704Z,2.27
2023-04-11T00:54:10.182Z,2.40
2023-04-11T00:56:37.318Z,2.00
2023-04-11T00:59:04.361Z,2.27
2023-04-11T01:01:36.136Z,2.50
2023-04-11T01:04:03.475Z,2.93
2023-04-11T01:06:31.288Z,3.50
2023-04-11T01:09:07.633Z,4.40
2023-04-11T01:11:34.915Z,3.77
2023-04-11T01:14:03.045Z,3.13
2023-04-11T01:16:30.481Z,2.97
2023-04-11T01:18:57.836Z,3.00
2023-04-11T01:21:27.012Z,3.47
2023-04-11T01:23:54.230Z,3.97
2023-04-11T01:26:21.420Z,3.20
2023-04-11T01:28:48.474Z,3.80
2023-04-11T01:31:15.593Z,4.30
2023-04-11T01:33:43.163Z,3.73
2023-04-11T01:36:10.363Z,4.30
2023-04-11T01:38:37.456Z,4.07
2023-04-11T01:41:05.210Z,4.33
2023-04-11T01:43:32.531Z,4.07
2023-04-11T01:45:59.703Z,3.67
2023-04-11T01:48:26.767Z,3.70
2023-04-11T01:50:55.880Z,4.67
2023-04-11T01:53:23.145Z,4.80
2023-04-11T01:55:50.212Z,3.97
2023-04-11T01:58:17.265Z,4.00
2023-04-11T02:00:44.342Z,4.33
2023-04-11T02:03:11.495Z,3.67
2023-04-11T02:05:39.547Z,3.77
2023-04-11T02:08:06.593Z,4.80
2023-04-11T02:10:33.685Z,4.47
2023-04-11T02:13:00.775Z,5.37
2023-04-11T02:15:28.143Z,4.87
2023-04-11T02:17:55.306Z,4.73
2023-04-11T02:20:23.142Z,4.10
2023-04-11T02:22:50.298Z,4.60
2023-04-11T02:25:17.438Z,4.00
2023-04-11T02:27:44.465Z,4.23
2023-04-11T02:30:11.686Z,3.73
2023-04-11T02:32:38.754Z,3.17
2023-04-11T02:35:07.703Z,4.13
2023-04-11T02:37:35.742Z,3.40
2023-04-11T02:40:04.309Z,3.77
2023-04-11T02:42:31.421Z,4.20
2023-04-11T02:44:58.477Z,4.17
2023-04-11T02:47:25.600Z,4.53
2023-04-11T02:49:52.641Z,4.60
2023-04-11T02:52:20.215Z,5.37
2023-04-11T02:54:47.286Z,5.43
2023-04-11T02:57:14.632Z,5.87
2023-04-11T02:59:41.662Z,5.77
2023-04-11T03:02:08.772Z,6.70
2023-04-11T03:04:36.102Z,6.87
2023-04-11T03:07:03.224Z,6.13
2023-04-11T03:09:30.432Z,6.47
2023-04-11T03:11:57.708Z,6.77
2023-04-11T03:14:24.733Z,6.13
2023-04-11T03:16:51.770Z,6.83
2023-04-11T03:19:18.829Z,6.83
2023-04-11T03:21:45.889Z,7.00
2023-04-11T03:24:12.936Z,6.10
2023-04-11T03:26:40.147Z,7.73
2023-04-11T03:29:07.452Z,6.90
2023-04-11T03:31:34.601Z,6.63
2023-04-11T03:34:01.668Z,7.83
2023-04-11T03:36:29.515Z,6.90
2023-04-11T03:38:56.717Z,7.27
2023-04-11T03:41:23.931Z,6.50
2023-04-11T03:43:50.958Z,7.20
2023-04-11T03:46:18.025Z,6.13
2023-04-11T03:48:47.020Z,7.27
2023-04-11T03:51:14.138Z,6.23
2023-04-11T03:53:41.173Z,6.87
2023-04-11T03:56:08.559Z,7.40
2023-04-11T03:58:36.091Z,7.27
2023-04-11T04:01:05.928Z,6.77
2023-04-11T04:03:35.419Z,6.47
2023-04-11T04:06:02.795Z,7.23
2023-04-11T04:08:30.089Z,6.87
2023-04-11T04:10:57.138Z,7.17
2023-04-11T04:13:24.236Z,6.77
2023-04-11T04:15:51.528Z,7.70
2023-04-11T04:18:18.693Z,6.30
2023-04-11T04:20:46.550Z,7.03
2023-04-11T04:23:17.925Z,8.67
2023-04-11T04:25:48.272Z,7.20
2023-04-11T04:28:20.203Z,6.03
2023-04-11T04:30:54.076Z,6.30
2023-04-11T04:33:26.386Z,6.70
2023-04-11T04:35:58.083Z,6.90
2023-04-11T04:38:25.960Z,6.27
2023-04-11T04:40:54.727Z,5.97
2023-04-11T04:43:22.820Z,4.83
2023-04-11T04:45:49.994Z,5.40
2023-04-11T04:48:20.170Z,3.80
2023-04-11T04:50:49.597Z,5.47
2023-04-11T04:53:19.385Z,5.13
2023-04-11T04:55:46.706Z,4.67
2023-04-11T04:58:13.780Z,4.50
2023-04-11T05:00:40.970Z,4.33
2023-04-11T05:03:08.986Z,3.63
2023-04-11T05:05:36.203Z,2.90
2023-04-11T05:08:12.783Z,2.43
2023-04-11T05:10:39.861Z,2.07
2023-04-11T05:13:06.880Z,2.37
2023-04-11T05:15:33.920Z,2.17
2023-04-11T05:18:01.279Z,2.50
2023-04-11T05:20:29.654Z,2.23
2023-04-11T05:22:56.769Z,2.10
2023-04-11T05:25:23.821Z,2.57
2023-04-11T05:27:50.903Z,2.67
2023-04-11T05:30:17.946Z,2.57
2023-04-11T05:32:45.025Z,2.60
2023-04-11T05:35:12.078Z,2.83
2023-04-11T05:37:39.137Z,2.97
2023-04-11T05:40:08.827Z,2.93
2023-04-11T05:42:36.019Z,2.50
2023-04-11T05:45:03.117Z,2.60
2023-04-11T05:47:31.185Z,2.10
2023-04-11T05:49:58.320Z,2.10
2023-04-11T05:52:25.391Z,2.13
2023-04-11T05:54:52.434Z,2.33
2023-04-11T05:57:19.530Z,2.60
2023-04-11T05:59:49.803Z,2.33
2023-04-11T06:02:17.420Z,2.50
2023-04-11T06:04:44.619Z,2.40
2023-04-11T06:07:11.925Z,2.83
2023-04-11T06:09:41.928Z,3.47
2023-04-11T06:12:09.373Z,3.00
2023-04-11T06:14:38.780Z,3.40
2023-04-11T06:17:07.291Z,4.77
2023-04-11T06:19:34.378Z,3.27
2023-04-11T06:22:01.513Z,2.90
2023-04-11T06:24:36.045Z,2.90
2023-04-11T06:27:03.669Z,3.40
2023-04-11T06:29:30.967Z,3.53
2023-04-11T06:31:58.448Z,3.80
2023-04-11T06:34:25.638Z,3.40
2023-04-11T06:36:52.769Z,3.87
2023-04-11T06:39:20.176Z,4.10
2023-04-11T06:41:47.695Z,3.77
2023-04-11T06:44:14.980Z,4.27
2023-04-11T06:46:42.239Z,4.33
2023-04-11T06:49:10.294Z,4.63
2023-04-11T06:51:37.452Z,3.77
2023-04-11T06:54:06.308Z,4.53
2023-04-11T06:56:33.432Z,6.20
2023-04-11T06:59:01.365Z,3.33
2023-04-11T07:01:35.406Z,3.00
2023-04-11T07:04:02.886Z,2.57
2023-04-11T07:06:31.478Z,2.53
2023-04-11T07:09:01.076Z,3.53
2023-04-11T07:11:28.352Z,3.00
2023-04-11T07:13:56.436Z,3.93
2023-04-11T07:16:24.049Z,3.90
2023-04-11T07:18:51.180Z,4.10
2023-04-11T07:21:18.267Z,4.23
2023-04-11T07:23:45.637Z,5.13
2023-04-11T07:26:16.847Z,3.90
2023-04-11T07:28:47.385Z,3.70
2023-04-11T07:31:15.158Z,3.40
2023-04-11T07:33:45.321Z,2.77
2023-04-11T07:36:12.471Z,2.60
2023-04-11T07:38:39.563Z,2.77
2023-04-11T07:41:06.772Z,2.33
2023-04-11T07:43:34.336Z,2.00
2023-04-11T07:46:01.716Z,2.13
2023-04-11T07:48:28.962Z,2.03
2023-04-11T07:50:56.141Z,2.20
2023-04-11T07:53:23.222Z,2.47
2023-04-11T07:55:50.362Z,2.63
2023-04-11T07:58:17.484Z,1.83
2023-04-11T08:00:44.820Z,1.63
2023-04-11T08:03:13.775Z,2.27
2023-04-11T08:05:41.295Z,1.93
2023-04-11T08:08:08.539Z,1.87
2023-04-11T08:10:35.679Z,2.30
2023-04-11T08:13:02.748Z,1.97
2023-04-11T08:15:29.921Z,1.90
2023-04-11T08:17:57.197Z,1.90
2023-04-11T08:20:24.708Z,1.90
2023-04-11T08:22:51.860Z,2.30
2023-04-11T08:25:20.013Z,2.37
2023-04-11T08:27:47.168Z,1.50
2023-04-11T08:30:14.600Z,1.70
2023-04-11T08:32:42.448Z,2.03
2023-04-11T08:35:09.981Z,2.13
2023-04-11T08:37:37.043Z,2.23
2023-04-11T08:40:07.279Z,2.10
2023-04-11T08:42:34.377Z,2.27
2023-04-11T08:45:02.510Z,1.70
2023-04-11T08:47:29.608Z,2.47
2023-04-11T08:49:56.707Z,1.83
2023-04-11T08:52:24.303Z,2.13
2023-04-11T08:54:54.998Z,1.77
2023-04-11T08:57:26.329Z,1.93
2023-04-11T08:59:54.888Z,2.43
2023-04-11T09:02:22.073Z,2.33
2023-04-11T09:04:49.363Z,3.10
2023-04-11T09:07:17.106Z,1.63
2023-04-11T09:09:44.524Z,1.90
2023-04-11T09:12:13.665Z,1.90
2023-04-11T09:14:41.211Z,1.97
2023-04-11T09:17:16.859Z,2.37
2023-04-11T09:19:45.555Z,2.60
2023-04-11T09:22:15.581Z,2.17
2023-04-11T09:24:42.965Z,1.80
2023-04-11T09:27:10.142Z,1.67
2023-04-11T09:29:38.579Z,2.20
2023-04-11T09:32:06.450Z,2.40
2023-04-11T09:34:41.116Z,2.47
2023-04-11T09:37:09.476Z,1.97
2023-04-11T09:39:36.579Z,1.97
2023-04-11T09:42:23.421Z,1.80
2023-04-11T09:44:50.532Z,2.10
2023-04-11T09:47:18.621Z,2.50
2023-04-11T09:49:45.906Z,2.13
2023-04-11T09:52:13.132Z,2.00
2023-04-11T09:54:40.412Z,2.20
2023-04-11T09:57:08.404Z,2.20
2023-04-11T09:59:36.711Z,2.43
2023-04-11T10:02:04.343Z,2.57
2023-04-11T10:04:32.381Z,2.00
2023-04-11T10:07:14.026Z,2.10
2023-04-11T10:09:44.056Z,2.33
2023-04-11T10:12:11.631Z,2.23
2023-04-11T10:14:38.998Z,2.43
2023-04-11T10:17:16.392Z,1.83
2023-04-11T10:19:45.470Z,2.43
2023-04-11T10:22:32.958Z,2.60
2023-04-11T10:25:19.514Z,2.33
2023-04-11T10:27:50.392Z,2.17
2023-04-11T10:30:17.673Z,2.60
2023-04-11T10:33:03.701Z,2.60
2023-04-11T10:35:33.280Z,2.10
2023-04-11T10:38:00.597Z,2.63
2023-04-11T10:40:27.755Z,2.00
2023-04-11T10:42:55.234Z,1.90
2023-04-11T10:45:29.279Z,2.13
2023-04-11T10:48:11.715Z,2.27
2023-04-11T10:50:40.727Z,1.87
2023-04-11T10:53:09.537Z,2.43
2023-04-11T10:55:47.533Z,2.73
2023-04-11T10:58:22.200Z,2.17
2023-04-11T11:00:53.635Z,1.87
2023-04-11T11:03:24.873Z,2.00
2023-04-11T11:05:59.243Z,2.90
2023-04-11T11:08:32.582Z,3.10
2023-04-11T11:11:03.698Z,2.83
2023-04-11T11:13:47.255Z,2.00
2023-04-11T11:16:20.753Z,2.50
2023-04-11T11:18:48.872Z,2.30
2023-04-11T11:21:26.808Z,2.30
2023-04-11T11:23:55.575Z,2.40
2023-04-11T11:26:24.626Z,2.63
2023-04-11T11:28:51.726Z,2.03
2023-04-11T11:31:18.833Z,2.37
2023-04-11T11:33:46.060Z,2.70
2023-04-11T11:36:15.656Z,2.20
2023-04-11T11:38:42.797Z,2.30
2023-04-11T11:41:10.231Z,2.27
2023-04-11T11:43:37.750Z,1.70
2023-04-11T11:46:09.266Z,2.60
2023-04-11T11:48:36.956Z,1.83
2023-04-11T11:51:04.116Z,2.70
2023-04-11T11:53:31.205Z,2.10
2023-04-11T11:55:59.286Z,2.17
2023-04-11T11:58:27.239Z,2.07
2023-04-11T12:00:54.745Z,2.43
2023-04-11T12:03:23.500Z,2.87
2023-04-11T12:05:55.083Z,2.23
2023-04-11T12:08:22.249Z,2.33
2023-04-11T12:10:50.504Z,2.83
2023-04-11T12:13:22.526Z,2.70
2023-04-11T12:15:51.279Z,1.93
2023-04-11T12:18:20.590Z,1.90
2023-04-11T12:20:47.672Z,2.20
2023-04-11T12:23:14.731Z,1.90
2023-04-11T12:25:41.792Z,2.27
2023-04-11T12:28:09.592Z,1.70
2023-04-11T12:30:37.629Z,1.93
2023-04-11T12:33:05.304Z,1.83
2023-04-11T12:35:32.857Z,1.70
2023-04-11T12:37:59.941Z,2.70
2023-04-11T12:40:29.320Z,2.07
2023-04-11T12:42:57.493Z,1.60
2023-04-11T12:45:25.113Z,1.57
2023-04-11T12:47:52.398Z,1.60
2023-04-11T12:50:19.881Z,1.93
2023-04-11T12:52:48.640Z,2.53
2023-04-11T12:55:16.003Z,1.90
2023-04-11T12:57:43.695Z,1.80
2023-04-11T13:00:12.833Z,1.70
2023-04-11T13:02:43.826Z,1.50
2023-04-11T13:05:11.922Z,1.50
2023-04-11T13:07:39.154Z,2.00
2023-04-11T13:10:09.224Z,1.43
2023-04-11T13:12:45.896Z,2.43
2023-04-11T13:15:14.017Z,1.77
2023-04-11T13:17:41.321Z,1.30
2023-04-11T13:20:09.974Z,1.50
2023-04-11T13:22:38.232Z,1.67
2023-04-11T13:25:05.847Z,1.60
2023-04-11T13:27:33.113Z,1.37
2023-04-11T13:30:00.229Z,1.80
2023-04-11T13:32:27.692Z,1.80
2023-04-11T13:34:54.832Z,1.63
2023-04-11T13:37:22.046Z,1.80
2023-04-11T13:39:49.200Z,2.10
2023-04-11T13:42:16.303Z,1.40
2023-04-11T13:44:43.382Z,2.27
2023-04-11T13:47:10.453Z,1.57
2023-04-11T13:49:37.516Z,2.03
2023-04-11T13:52:04.776Z,1.50
2023-04-11T13:54:31.863Z,1.50
2023-04-11T13:56:59.487Z,1.60
2023-04-11T13:59:27.800Z,1.50
2023-04-11T14:01:54.892Z,1.50
2023-04-11T14:04:22.260Z,1.83
2023-04-11T14:06:49.533Z,1.77
2023-04-11T14:09:16.597Z,2.20
2023-04-11T14:11:43.741Z,1.40
2023-04-11T14:14:10.994Z,1.50
2023-04-11T14:16:38.092Z,1.50
2023-04-11T14:19:05.432Z,1.53
2023-04-11T14:21:32.725Z,1.90
2023-04-11T14:23:59.905Z,1.10
2023-04-11T14:26:27.002Z,1.63
2023-04-11T14:28:54.080Z,1.57
2023-04-11T14:31:21.302Z,1.37
2023-04-11T14:33:48.492Z,1.27
2023-04-11T14:36:15.625Z,1.93
2023-04-11T14:38:42.723Z,1.30
2023-04-11T14:41:10.532Z,1.40
2023-04-11T14:43:37.612Z,1.77
2023-04-11T14:46:04.737Z,1.60
2023-04-11T14:48:31.832Z,1.90
2023-04-11T14:50:58.895Z,1.40
2023-04-11T14:53:25.997Z,1.60
2023-04-11T14:55:53.067Z,1.63
2023-04-11T14:58:21.043Z,1.60
2023-04-11T15:00:48.136Z,1.63
2023-04-11T15:03:15.502Z,1.40
2023-04-11T15:05:42.729Z,1.50
2023-04-11T15:08:09.921Z,1.53
2023-04-11T15:10:37.084Z,1.70
2023-04-11T15:13:04.272Z,1.80
2023-04-11T15:15:31.540Z,1.70
2023-04-11T15:18:17.218Z,1.53
2023-04-11T15:20:44.302Z,1.63
2023-04-11T15:23:11.389Z,1.70
2023-04-11T15:25:38.495Z,1.63
2023-04-11T15:28:05.716Z,1.43
2023-04-11T15:30:32.793Z,1.40
2023-04-11T15:32:59.872Z,2.13
2023-04-11T15:35:26.963Z,1.47
2023-04-11T15:37:54.030Z,1.47
2023-04-11T15:40:21.083Z,1.70
2023-04-11T15:42:49.656Z,1.53
2023-04-11T15:45:16.713Z,1.53
2023-04-11T15:47:43.740Z,1.90
2023-04-11T15:50:11.927Z,1.30
2023-04-11T15:52:38.960Z,1.20
2023-04-11T15:55:06.734Z,1.30
2023-04-11T15:57:33.765Z,1.40
2023-04-11T16:00:01.298Z,2.17
2023-04-11T16:02:28.847Z,1.27
2023-04-11T16:04:56.108Z,1.50
2023-04-11T16:07:23.428Z,1.40
2023-04-11T16:09:50.645Z,1.80
2023-04-11T16:12:17.710Z,1.30
2023-04-11T16:14:47.854Z,0.87
2023-04-11T16:17:19.844Z,1.70
2023-04-11T16:19:47.555Z,1.70
2023-04-11T16:22:14.622Z,1.40
2023-04-11T16:24:41.654Z,1.73
2023-04-11T16:27:08.678Z,1.40
2023-04-11T16:29:35.777Z,1.60
2023-04-11T16:32:03.138Z,1.50
2023-04-11T16:34:30.397Z,1.80
2023-04-11T16:36:57.551Z,1.50
2023-04-11T16:39:24.594Z,1.90
2023-04-11T16:41:52.744Z,1.43
2023-04-11T16:44:21.546Z,1.30
2023-04-11T16:46:48.665Z,1.30
2023-04-11T16:49:18.553Z,1.73
2023-04-11T16:51:45.586Z,1.50
2023-04-11T16:54:13.569Z,1.40
2023-04-11T16:56:40.704Z,1.50
2023-04-11T16:59:07.755Z,1.60
2023-04-11T17:01:34.820Z,1.80
2023-04-11T17:04:02.279Z,2.30
2023-04-11T17:06:29.518Z,4.77
2023-04-11T17:08:57.774Z,2.90
2023-04-11T17:11:24.969Z,2.60
2023-04-11T17:13:54.362Z,2.03
2023-04-11T17:16:21.925Z,2.00
2023-04-11T17:18:49.121Z,1.63
2023-04-11T17:21:17.045Z,2.00
2023-04-11T17:23:44.418Z,2.00
2023-04-11T17:26:11.921Z,1.70
2023-04-11T17:28:42.385Z,1.70
2023-04-11T17:31:13.515Z,1.53
2023-04-11T17:33:40.788Z,2.10
2023-04-11T17:36:08.656Z,2.13
2023-04-11T17:38:37.356Z,1.90
2023-04-11T17:41:13.721Z,2.00
2023-04-11T17:43:42.491Z,3.30
2023-04-11T17:46:09.729Z,2.70
2023-04-11T17:48:37.037Z,1.93
2023-04-11T17:51:05.634Z,1.53
2023-04-11T17:53:33.193Z,1.67
2023-04-11T17:56:07.112Z,2.23
2023-04-11T17:58:34.529Z,1.80
2023-04-11T18:01:04.162Z,1.70
2023-04-11T18:03:34.776Z,2.03
2023-04-11T18:06:02.347Z,1.60
2023-04-11T18:08:43.200Z,1.90
2023-04-11T18:11:14.254Z,2.10
2023-04-11T18:13:43.805Z,1.87
2023-04-11T18:16:11.319Z,2.00
2023-04-11T18:18:38.530Z,2.13
2023-04-11T18:21:07.284Z,2.77
2023-04-11T18:23:34.832Z,3.10
2023-04-11T18:26:01.852Z,2.90
2023-04-11T18:28:29.239Z,3.73
2023-04-11T18:30:56.581Z,4.37
2023-04-11T18:33:23.771Z,4.10
2023-04-11T18:35:50.981Z,5.67
2023-04-11T18:38:18.082Z,7.27
2023-04-11T18:40:46.080Z,7.87
2023-04-11T18:43:13.398Z,8.47
2023-04-11T18:45:42.357Z,8.83
2023-04-11T18:48:10.576Z,8.37
2023-04-11T18:50:39.097Z,10.10
2023-04-11T18:53:10.688Z,6.60
2023-04-11T18:55:40.684Z,5.63
2023-04-11T18:58:09.924Z,5.23
2023-04-11T19:00:39.170Z,5.50
2023-04-11T19:03:07.251Z,4.50
2023-04-11T19:05:35.115Z,4.50
2023-04-11T19:08:03.756Z,4.13
2023-04-11T19:10:30.825Z,4.00
2023-04-11T19:12:57.917Z,4.13
2023-04-11T19:15:24.981Z,4.00
2023-04-11T19:17:52.164Z,3.57
2023-04-11T19:20:20.430Z,4.40
2023-04-11T19:22:47.588Z,4.20
2023-04-11T19:25:14.860Z,4.70
2023-04-11T19:27:42.369Z,5.07
2023-04-11T19:30:10.687Z,5.17
2023-04-11T19:32:43.216Z,4.43
2023-04-11T19:35:11.589Z,4.43
2023-04-11T19:37:39.953Z,3.77
2023-04-11T19:40:07.866Z,6.13
2023-04-11T19:42:37.172Z,5.87
2023-04-11T19:45:04.968Z,4.17
2023-04-11T19:47:32.323Z,3.67
2023-04-11T19:50:01.055Z,3.80
2023-04-11T19:52:28.540Z,3.60
2023-04-11T19:54:56.296Z,3.10
2023-04-11T19:57:23.886Z,3.00
2023-04-11T19:59:51.176Z,3.17
2023-04-11T20:02:18.428Z,3.20
2023-04-11T20:04:45.926Z,2.77
2023-04-11T20:07:13.167Z,3.00
2023-04-11T20:09:40.306Z,4.67
2023-04-11T20:12:07.715Z,5.23
2023-04-11T20:14:34.911Z,4.20
2023-04-11T20:17:02.278Z,4.23
2023-04-11T20:19:31.560Z,4.00
2023-04-11T20:22:01.177Z,3.67
2023-04-11T20:24:29.021Z,4.37
2023-04-11T20:26:57.019Z,3.80
2023-04-11T20:29:32.523Z,3.50
2023-04-11T20:31:59.869Z,4.10
2023-04-11T20:34:26.972Z,4.77
2023-04-11T20:36:54.122Z,3.90
2023-04-11T20:39:21.338Z,4.27
2023-04-11T20:41:49.752Z,4.00
2023-04-11T20:44:23.522Z,3.77
2023-04-11T20:46:51.121Z,4.73
2023-04-11T20:49:20.252Z,4.10
2023-04-11T20:51:48.002Z,4.33
2023-04-11T20:54:15.042Z,3.83
2023-04-11T20:56:42.911Z,4.53
2023-04-11T20:59:11.844Z,5.50
2023-04-11T21:01:40.455Z,4.43
2023-04-11T21:04:09.716Z,3.93
2023-04-11T21:06:37.006Z,4.63
2023-04-11T21:09:05.252Z,5.40
2023-04-11T21:11:32.760Z,6.00
2023-04-11T21:13:59.809Z,4.30
2023-04-11T21:16:26.909Z,4.20
2023-04-11T21:18:54.031Z,4.83
2023-04-11T21:21:21.209Z,4.93
2023-04-11T21:23:48.255Z,3.70
2023-04-11T21:26:15.434Z,4.30
2023-04-11T21:28:42.517Z,3.90
2023-04-11T21:31:09.614Z,3.97
2023-04-11T21:33:36.866Z,4.53
2023-04-11T21:36:03.960Z,4.03
2023-04-11T21:38:31.148Z,3.87
2023-04-11T21:40:58.194Z,3.73
2023-04-11T21:43:25.370Z,3.70
2023-04-11T21:45:52.407Z,3.70
2023-04-11T21:48:19.477Z,4.17
2023-04-11T21:50:46.596Z,3.67
2023-04-11T21:53:14.246Z,3.53
2023-04-11T21:55:45.892Z,3.47
2023-04-11T21:58:22.256Z,3.43
2023-04-11T22:00:55.936Z,3.47
2023-04-11T22:03:23.694Z,3.60
2023-04-11T22:05:52.369Z,3.60
2023-04-11T22:08:20.430Z,3.40
2023-04-11T22:10:48.447Z,3.40
2023-04-11T22:13:16.947Z,3.60
2023-04-11T22:15:44.473Z,4.03
2023-04-11T22:18:11.853Z,4.77
2023-04-11T22:20:43.956Z,3.30
2023-04-11T22:23:12.990Z,3.03
2023-04-11T22:25:42.281Z,2.90
2023-04-11T22:28:12.002Z,3.77
2023-04-11T22:30:39.065Z,3.17
2023-04-11T22:33:06.122Z,3.60
2023-04-11T22:35:34.951Z,3.20
2023-04-11T22:38:03.421Z,3.63
2023-04-11T22:40:30.512Z,3.67
2023-04-11T22:42:57.612Z,3.63
2023-04-11T22:45:24.749Z,3.67
2023-04-11T22:47:54.270Z,3.20
2023-04-11T22:50:21.749Z,3.33
2023-04-11T22:52:50.070Z,3.57
2023-04-11T22:55:19.882Z,3.20
2023-04-11T22:57:47.279Z,4.03
2023-04-11T23:00:17.706Z,3.47
2023-04-11T23:02:45.034Z,3.00
2023-04-11T23:05:12.145Z,3.37
2023-04-11T23:07:39.253Z,3.73
2023-04-11T23:10:13.902Z,3.20
2023-04-11T23:12:41.929Z,3.50
2023-04-11T23:15:09.734Z,3.13
2023-04-11T23:17:40.143Z,2.93
2023-04-11T23:20:13.447Z,3.37
2023-04-11T23:22:42.229Z,3.27
2023-04-11T23:25:10.879Z,3.97
2023-04-11T23:27:38.524Z,3.33
2023-04-11T23:30:05.918Z,3.10
2023-04-11T23:32:33.215Z,3.50
2023-04-11T23:35:00.339Z,3.70
2023-04-11T23:37:28.301Z,3.20
2023-04-11T23:39:55.491Z,3.60
2023-04-11T23:42:22.553Z,3.20
2023-04-11T23:44:49.580Z,4.23
2023-04-11T23:47:16.595Z,3.70
2023-04-11T23:49:44.310Z,2.90
2023-04-11T23:52:12.206Z,3.77
2023-04-11T23:54:39.315Z,3.07
2023-04-11T23:57:07.131Z,3.33
2023-04-11T23:59:34.195Z,3.40
